createdAt,value
2019-05-10T00:00:19.255Z,99.90
2019-05-10T00:03:07.169Z,99.90
2019-05-10T00:05:54.437Z,99.90
2019-05-10T00:08:41.696Z,99.90
2019-05-10T00:11:33.330Z,99.90
2019-05-10T00:14:39.015Z,99.90
2019-05-10T00:17:13.737Z,99.90
2019-05-10T00:19:43.670Z,99.90
2019-05-10T00:22:13.605Z,99.90
2019-05-10T00:24:43.519Z,99.90
2019-05-10T00:27:13.501Z,99.90
2019-05-10T00:29:43.421Z,99.90
2019-05-10T00:32:13.378Z,99.90
2019-05-10T00:34:43.313Z,99.90
2019-05-10T00:37:13.197Z,99.90
2019-05-10T00:39:43.134Z,99.90
2019-05-10T00:42:13.164Z,99.90
2019-05-10T00:44:43.061Z,99.90
2019-05-10T00:47:13.009Z,99.90
2019-05-10T00:49:42.969Z,99.90
2019-05-10T00:52:12.886Z,99.90
2019-05-10T00:54:42.817Z,99.90
2019-05-10T00:57:12.801Z,99.90
2019-05-10T00:59:45.483Z,99.90
2019-05-10T01:02:15.367Z,99.90
2019-05-10T01:04:45.332Z,99.90
2019-05-10T01:07:15.265Z,99.90
2019-05-10T01:09:45.160Z,99.90
2019-05-10T01:12:15.113Z,99.90
2019-05-10T01:14:45.039Z,99.90
2019-05-10T01:17:14.993Z,99.90
2019-05-10T01:19:44.950Z,99.90
2019-05-10T01:22:14.888Z,99.90
2019-05-10T01:24:44.862Z,99.90
2019-05-10T01:27:14.876Z,99.90
2019-05-10T01:29:44.828Z,99.90
2019-05-10T01:32:15.038Z,99.90
2019-05-10T01:34:45.075Z,99.90
2019-05-10T01:37:15.044Z,99.90
2019-05-10T01:39:44.955Z,99.90
2019-05-10T01:42:14.930Z,99.90
2019-05-10T01:44:44.895Z,99.90
2019-05-10T01:47:14.825Z,99.90
2019-05-10T01:49:44.915Z,99.90
2019-05-10T01:52:14.945Z,99.90
2019-05-10T01:54:44.864Z,99.90
2019-05-10T01:57:14.829Z,99.90
2019-05-10T01:59:44.796Z,99.90
2019-05-10T02:02:14.847Z,99.90
2019-05-10T02:04:44.788Z,99.90
2019-05-10T02:07:14.859Z,99.90
2019-05-10T02:09:44.795Z,99.90
2019-05-10T02:12:14.684Z,99.90
2019-05-10T02:14:44.644Z,99.90
2019-05-10T02:17:14.560Z,99.90
2019-05-10T02:26:30.510Z,99.90
2019-05-10T02:29:00.460Z,99.90
2019-05-10T02:31:30.384Z,99.90
2019-05-10T02:34:00.325Z,99.90
2019-05-10T02:36:30.283Z,99.90
2019-05-10T02:39:00.212Z,99.90
2019-05-10T02:41:30.140Z,99.90
2019-05-10T02:44:00.108Z,99.90
2019-05-10T02:46:30.005Z,99.90
2019-05-10T02:48:59.968Z,99.90
2019-05-10T02:51:30.015Z,99.90
2019-05-10T02:54:00.488Z,99.90
2019-05-10T02:56:31.759Z,99.90
2019-05-10T02:59:02.581Z,99.90
2019-05-10T03:01:35.064Z,99.90
2019-05-10T03:04:04.993Z,99.90
2019-05-10T03:06:35.907Z,99.90
2019-05-10T03:09:08.734Z,99.90
2019-05-10T03:11:49.393Z,99.90
2019-05-10T03:14:19.831Z,99.90
2019-05-10T03:16:52.250Z,99.90
2019-05-10T03:19:23.161Z,99.90
2019-05-10T03:22:01.100Z,99.90
2019-05-10T03:24:31.016Z,99.90
2019-05-10T03:27:00.953Z,99.90
2019-05-10T03:29:30.921Z,99.90
2019-05-10T03:32:00.830Z,99.90
2019-05-10T03:34:31.006Z,99.90
2019-05-10T03:37:01.310Z,99.90
2019-05-10T03:39:31.210Z,99.90
2019-05-10T03:42:01.222Z,99.90
2019-05-10T03:44:31.183Z,99.90
2019-05-10T03:47:01.114Z,99.90
2019-05-10T03:49:31.056Z,99.90
2019-05-10T03:52:01.004Z,99.90
2019-05-10T03:54:30.958Z,99.90
2019-05-10T03:57:13.157Z,99.90
2019-05-10T03:59:32.455Z,99.90
2019-05-10T04:02:02.523Z,99.90
2019-05-10T04:04:32.440Z,99.90
2019-05-10T04:07:02.407Z,99.90
2019-05-10T04:09:32.312Z,99.90
2019-05-10T04:12:02.231Z,99.90
2019-05-10T04:14:32.204Z,99.90
2019-05-10T04:17:01.978Z,99.90
2019-05-10T04:19:31.705Z,99.90
2019-05-10T04:22:01.462Z,99.90
2019-05-10T04:24:35.708Z,99.90
2019-05-10T04:27:02.813Z,99.90
2019-05-10T04:29:32.793Z,99.90
2019-05-10T04:32:02.503Z,99.90
2019-05-10T04:34:33.975Z,99.90
2019-05-10T04:37:03.693Z,99.90
2019-05-10T04:39:43.360Z,99.90
2019-05-10T04:42:13.075Z,99.90
2019-05-10T04:44:42.811Z,99.90
2019-05-10T04:47:12.559Z,99.90
2019-05-10T04:49:42.365Z,99.90
2019-05-10T04:52:12.148Z,99.90
2019-05-10T04:54:42.011Z,99.90
2019-05-10T04:57:11.846Z,99.90
2019-05-10T04:59:41.551Z,99.90
2019-05-10T05:02:11.203Z,99.90
2019-05-10T05:04:41.170Z,99.90
2019-05-10T05:07:18.259Z,99.90
2019-05-10T05:09:59.941Z,99.90
2019-05-10T05:12:30.455Z,99.90
2019-05-10T05:15:00.576Z,99.90
2019-05-10T05:17:30.882Z,99.90
2019-05-10T05:20:00.727Z,99.90
2019-05-10T05:22:30.523Z,99.90
2019-05-10T05:25:01.071Z,99.90
2019-05-10T05:27:31.360Z,99.90
2019-05-10T05:30:01.279Z,99.90
2019-05-10T05:32:31.353Z,99.90
2019-05-10T05:35:01.082Z,99.90
2019-05-10T05:37:30.879Z,99.90
2019-05-10T05:40:00.663Z,99.90
2019-05-10T05:42:30.329Z,99.90
2019-05-10T05:45:00.121Z,99.90
2019-05-10T05:47:29.956Z,99.90
2019-05-10T05:49:59.668Z,99.90
2019-05-10T05:52:29.423Z,99.90
2019-05-10T05:54:59.348Z,99.90
2019-05-10T05:57:29.719Z,99.90
2019-05-10T06:00:04.037Z,99.90
2019-05-10T06:02:31.116Z,99.90
2019-05-10T06:05:00.990Z,99.90
2019-05-10T06:07:31.140Z,99.90
2019-05-10T06:10:02.034Z,99.90
2019-05-10T06:12:31.738Z,99.90
2019-05-10T06:15:01.360Z,99.90
2019-05-10T06:17:31.752Z,99.90
2019-05-10T06:20:05.937Z,99.90
2019-05-10T06:22:38.002Z,99.90
2019-05-10T06:25:04.711Z,99.90
2019-05-10T06:27:35.447Z,99.90
2019-05-10T06:30:06.261Z,99.90
2019-05-10T06:32:36.067Z,99.90
2019-05-10T06:35:06.118Z,99.90
2019-05-10T06:37:36.384Z,99.90
2019-05-10T06:40:06.319Z,99.90
2019-05-10T06:42:36.221Z,99.90
2019-05-10T06:45:14.525Z,99.90
2019-05-10T06:47:41.782Z,99.90
2019-05-10T06:50:10.698Z,99.90
2019-05-10T06:52:40.430Z,99.90
2019-05-10T06:55:10.112Z,99.90
2019-05-10T06:57:39.864Z,99.90
2019-05-10T07:00:10.371Z,99.90
2019-05-10T07:02:40.294Z,99.90
2019-05-10T07:05:10.261Z,99.90
2019-05-10T07:08:16.394Z,99.90
2019-05-10T07:10:41.036Z,99.90
2019-05-10T07:13:10.906Z,99.90
2019-05-10T07:15:44.656Z,99.90
2019-05-10T07:18:16.996Z,99.90
2019-05-10T07:20:44.163Z,99.90
2019-05-10T07:23:13.943Z,99.90
2019-05-10T07:25:46.511Z,99.90
2019-05-10T07:31:12.351Z,99.90
2019-05-10T07:33:42.075Z,99.90
2019-05-10T07:36:15.458Z,99.90
2019-05-10T07:38:45.846Z,99.90
2019-05-10T07:41:19.489Z,99.90
2019-05-10T07:43:48.312Z,99.90
2019-05-10T07:46:18.434Z,99.90
2019-05-10T07:48:53.566Z,99.90
2019-05-10T07:51:22.995Z,99.90
2019-05-10T07:53:51.745Z,99.90
2019-05-10T07:56:23.287Z,99.90
2019-05-10T07:58:53.285Z,99.90
2019-05-10T08:01:32.347Z,99.90
2019-05-10T08:03:54.826Z,99.90
2019-05-10T08:06:24.774Z,99.90
2019-05-10T08:08:55.301Z,99.90
2019-05-10T08:11:28.440Z,99.90
2019-05-10T08:14:05.859Z,99.90
2019-05-10T08:16:29.388Z,99.90
2019-05-10T08:19:00.929Z,99.90
2019-05-10T08:21:32.244Z,99.90
2019-05-10T08:24:07.193Z,99.90
2019-05-10T08:26:34.204Z,99.90
2019-05-10T08:29:07.778Z,99.90
2019-05-10T08:31:40.672Z,99.90
2019-05-10T08:34:08.418Z,99.90
2019-05-10T08:36:43.450Z,99.90
2019-05-10T08:39:11.469Z,99.90
2019-05-10T08:42:03.328Z,99.90
2019-05-10T08:44:24.040Z,99.90
2019-05-10T08:46:54.395Z,99.80
2019-05-10T08:49:31.356Z,99.40
2019-05-10T08:51:55.407Z,99.00
2019-05-10T08:54:26.520Z,98.70
2019-05-10T08:57:01.265Z,98.60
2019-05-10T08:59:30.819Z,98.40
2019-05-10T09:02:01.965Z,98.30
2019-05-10T09:04:42.238Z,98.60
2019-05-10T09:07:02.811Z,98.50
2019-05-10T09:09:42.262Z,98.40
2019-05-10T09:12:09.048Z,98.30
2019-05-10T09:14:35.985Z,98.40
2019-05-10T09:17:05.686Z,98.60
2019-05-10T09:19:40.630Z,98.50
2019-05-10T09:22:06.904Z,98.40
2019-05-10T09:24:43.221Z,98.10
2019-05-10T09:27:08.119Z,97.90
2019-05-10T09:30:35.472Z,97.80
2019-05-10T09:33:10.591Z,97.70
2019-05-10T09:35:39.038Z,97.60
2019-05-10T09:38:09.306Z,97.40
2019-05-10T09:40:50.208Z,97.10
2019-05-10T09:43:12.488Z,96.50
2019-05-10T09:45:42.552Z,96.40
2019-05-10T09:48:12.412Z,96.20
2019-05-10T09:50:46.898Z,96.20
2019-05-10T09:53:18.202Z,96.60
2019-05-10T09:55:55.154Z,96.70
2019-05-10T09:58:21.672Z,96.70
2019-05-10T10:00:48.474Z,96.60
2019-05-10T10:03:18.726Z,96.50
2019-05-10T10:05:48.514Z,96.90
2019-05-10T10:08:19.222Z,96.90
2019-05-10T10:10:49.121Z,96.70
2019-05-10T10:13:35.679Z,96.50
2019-05-10T10:15:52.505Z,96.50
2019-05-10T10:18:25.320Z,96.30
2019-05-10T10:20:52.991Z,95.70
2019-05-10T10:23:24.722Z,95.10
2019-05-10T10:25:54.030Z,94.70
2019-05-10T10:28:23.867Z,94.40
2019-05-10T10:31:00.014Z,94.50
2019-05-10T10:33:28.819Z,94.50
2019-05-10T10:36:04.944Z,95.00
2019-05-10T10:38:31.086Z,94.70
2019-05-10T10:40:59.696Z,94.50
2019-05-10T10:43:29.458Z,94.40
2019-05-10T10:45:59.182Z,94.20
2019-05-10T10:48:28.934Z,93.90
2019-05-10T10:50:58.944Z,93.50
2019-05-10T10:53:29.051Z,93.00
2019-05-10T10:56:03.640Z,92.60
2019-05-10T10:58:32.054Z,92.60
2019-05-10T11:01:01.789Z,92.40
2019-05-10T11:03:32.543Z,92.60
2019-05-10T11:06:03.356Z,92.80
2019-05-10T11:08:33.390Z,93.00
2019-05-10T11:11:03.577Z,93.70
2019-05-10T11:13:45.464Z,93.80
2019-05-10T11:16:10.776Z,93.40
2019-05-10T11:18:36.277Z,93.00
2019-05-10T11:21:06.046Z,92.80
2019-05-10T11:23:38.979Z,92.60
2019-05-10T11:26:07.214Z,92.00
2019-05-10T11:28:39.127Z,91.50
2019-05-10T11:31:08.400Z,91.60
2019-05-10T11:33:41.131Z,92.00
2019-05-10T11:36:11.404Z,91.60
2019-05-10T11:38:42.049Z,91.20
2019-05-10T11:41:18.616Z,91.20
2019-05-10T11:43:43.568Z,91.10
2019-05-10T11:46:13.345Z,91.30
2019-05-10T11:48:43.141Z,91.30
2019-05-10T11:51:17.377Z,91.40
2019-05-10T11:53:48.972Z,91.80
2019-05-10T11:56:15.671Z,91.70
2019-05-10T11:58:52.603Z,91.80
2019-05-10T12:03:48.451Z,91.20
2019-05-10T12:06:18.128Z,91.00
2019-05-10T12:08:47.882Z,90.90
2019-05-10T12:11:29.353Z,91.10
2019-05-10T12:13:52.837Z,90.90
2019-05-10T12:16:21.487Z,91.10
2019-05-10T12:19:19.538Z,91.10
2019-05-10T12:21:23.303Z,90.50
2019-05-10T12:23:56.328Z,88.90
2019-05-10T12:26:03.777Z,91.40
2019-05-10T12:29:02.133Z,85.80
2019-05-10T12:31:27.497Z,86.50
2019-05-10T12:34:02.504Z,86.30
2019-05-10T12:36:31.306Z,84.40
2019-05-10T12:39:01.810Z,83.10
2019-05-10T12:41:31.996Z,83.70
2019-05-10T12:44:05.729Z,85.60
2019-05-10T12:46:33.761Z,87.60
2019-05-10T12:49:04.928Z,87.50
2019-05-10T12:51:35.011Z,87.80
2019-05-10T12:54:04.830Z,86.80
2019-05-10T12:56:43.004Z,86.60
2019-05-10T12:59:06.106Z,86.80
2019-05-10T13:01:35.809Z,86.40
2019-05-10T13:04:14.049Z,85.50
2019-05-10T13:06:36.935Z,84.70
2019-05-10T13:09:07.456Z,83.60
2019-05-10T13:11:39.072Z,82.90
2019-05-10T13:14:09.725Z,81.10
2019-05-10T13:16:39.695Z,79.60
2019-05-10T13:19:14.296Z,79.10
2019-05-10T13:21:41.818Z,79.50
2019-05-10T13:24:11.524Z,80.10
2019-05-10T13:26:41.251Z,80.40
2019-05-10T13:29:11.066Z,82.90
2019-05-10T13:31:42.951Z,83.10
2019-05-10T13:34:12.262Z,83.60
2019-05-10T13:36:42.028Z,84.00
2019-05-10T13:39:12.204Z,83.30
2019-05-10T13:41:42.038Z,83.60
2019-05-10T13:44:11.809Z,83.40
2019-05-10T13:46:41.473Z,83.20
2019-05-10T13:49:11.311Z,82.60
2019-05-10T13:51:41.976Z,81.50
2019-05-10T13:54:11.726Z,81.20
2019-05-10T13:56:45.276Z,79.40
2019-05-10T13:59:16.418Z,79.00
2019-05-10T14:01:49.356Z,79.10
2019-05-10T14:04:15.886Z,79.20
2019-05-10T14:06:45.791Z,79.30
2019-05-10T14:09:15.634Z,79.60
2019-05-10T14:11:46.904Z,79.10
2019-05-10T14:14:20.361Z,79.30
2019-05-10T14:16:48.103Z,80.00
2019-05-10T14:19:22.863Z,81.20
2019-05-10T14:21:49.620Z,81.80
2019-05-10T14:24:19.411Z,81.90
2019-05-10T14:26:51.420Z,82.70
2019-05-10T14:29:21.032Z,82.70
2019-05-10T14:31:52.501Z,82.90
2019-05-10T14:34:22.383Z,83.20
2019-05-10T14:36:52.341Z,82.70
2019-05-10T14:39:22.227Z,82.90
2019-05-10T14:41:52.531Z,83.20
2019-05-10T14:44:22.806Z,83.00
2019-05-10T14:46:52.720Z,82.20
2019-05-10T14:49:22.627Z,80.60
2019-05-10T14:51:59.084Z,78.90
2019-05-10T14:54:23.922Z,78.00
2019-05-10T14:56:54.200Z,77.30
2019-05-10T14:59:23.999Z,76.70
2019-05-10T15:01:53.774Z,76.40
2019-05-10T15:04:43.820Z,77.50
2019-05-10T15:06:55.098Z,78.70
2019-05-10T15:09:24.888Z,79.20
2019-05-10T15:11:54.627Z,79.90
2019-05-10T15:14:25.437Z,80.50
2019-05-10T15:16:55.234Z,80.60
2019-05-10T15:19:28.622Z,81.30
2019-05-10T15:21:56.663Z,80.80
2019-05-10T15:24:26.586Z,80.70
2019-05-10T15:26:56.363Z,81.10
2019-05-10T15:29:26.433Z,81.50
2019-05-10T15:31:56.523Z,81.50
2019-05-10T15:34:26.471Z,81.30
2019-05-10T15:37:02.765Z,81.10
2019-05-10T15:39:30.530Z,82.40
2019-05-10T15:42:00.998Z,82.30
2019-05-10T15:44:33.527Z,82.40
2019-05-10T15:47:02.750Z,82.60
2019-05-10T15:49:32.775Z,82.60
2019-05-10T15:52:16.780Z,82.70
2019-05-10T15:54:37.949Z,82.70
2019-05-10T15:57:05.675Z,82.50
2019-05-10T15:59:35.550Z,81.90
2019-05-10T16:02:05.803Z,81.70
2019-05-10T16:04:35.663Z,80.80
2019-05-10T16:07:09.445Z,80.60
2019-05-10T16:09:36.967Z,81.40
2019-05-10T16:12:08.752Z,80.30
2019-05-10T16:14:39.269Z,80.40
2019-05-10T16:17:16.110Z,81.10
2019-05-10T16:19:41.448Z,81.50
2019-05-10T16:22:11.165Z,82.00
2019-05-10T16:24:41.011Z,82.50
2019-05-10T16:27:10.806Z,83.30
2019-05-10T16:29:41.441Z,84.60
2019-05-10T16:32:11.537Z,85.50
2019-05-10T16:34:41.362Z,85.90
2019-05-10T16:37:11.134Z,86.30
2019-05-10T16:39:55.658Z,86.20
2019-05-10T16:42:27.943Z,86.30
2019-05-10T16:44:58.694Z,85.60
2019-05-10T16:47:38.799Z,84.20
2019-05-10T16:50:18.255Z,82.20
2019-05-10T16:52:48.153Z,80.90
2019-05-10T16:55:18.053Z,80.00
2019-05-10T16:57:47.759Z,79.10
2019-05-10T17:00:18.062Z,77.90
2019-05-10T17:02:47.814Z,76.10
2019-05-10T17:05:18.126Z,74.10
2019-05-10T17:07:48.696Z,73.60
2019-05-10T17:10:20.618Z,72.40
2019-05-10T17:12:50.529Z,71.20
2019-05-10T17:15:20.500Z,72.60
2019-05-10T17:17:50.659Z,72.60
2019-05-10T17:20:20.671Z,75.80
2019-05-10T17:22:51.155Z,79.30
2019-05-10T17:25:22.742Z,80.30
2019-05-10T17:27:57.539Z,80.80
2019-05-10T17:30:27.772Z,81.90
2019-05-10T17:32:57.647Z,82.90
2019-05-10T17:35:27.406Z,81.50
2019-05-10T17:37:58.111Z,81.60
2019-05-10T17:40:28.432Z,81.90
2019-05-10T17:42:58.326Z,82.80
2019-05-10T17:45:29.010Z,82.40
2019-05-10T17:48:03.455Z,83.20
2019-05-10T17:50:31.253Z,84.00
2019-05-10T17:53:01.148Z,84.60
2019-05-10T17:55:31.102Z,84.60
2019-05-10T17:58:06.982Z,84.80
2019-05-10T18:00:36.813Z,85.10
2019-05-10T18:03:06.552Z,85.20
2019-05-10T18:05:36.402Z,84.10
2019-05-10T18:08:06.523Z,83.10
2019-05-10T18:10:36.450Z,83.20
2019-05-10T18:16:48.135Z,84.40
2019-05-10T18:19:19.188Z,84.40
2019-05-10T18:21:47.349Z,84.30
2019-05-10T18:24:17.103Z,84.80
2019-05-10T18:26:46.980Z,85.20
2019-05-10T18:29:16.839Z,86.00
2019-05-10T18:31:54.760Z,86.20
2019-05-10T18:34:18.594Z,86.70
2019-05-10T18:36:51.560Z,86.80
2019-05-10T18:39:20.177Z,88.10
2019-05-10T18:41:50.453Z,87.70
2019-05-10T18:44:20.846Z,87.90
2019-05-10T18:46:52.084Z,88.10
2019-05-10T18:49:22.730Z,88.60
2019-05-10T18:51:58.174Z,89.10
2019-05-10T18:54:25.125Z,89.50
2019-05-10T18:56:55.396Z,89.90
2019-05-10T18:59:25.961Z,90.10
2019-05-10T19:01:56.319Z,90.30
2019-05-10T19:04:26.607Z,90.40
2019-05-10T19:07:09.394Z,90.50
2019-05-10T19:09:29.791Z,90.70
2019-05-10T19:12:00.501Z,90.90
2019-05-10T19:14:31.324Z,91.10
2019-05-10T19:17:03.910Z,91.30
2019-05-10T19:19:37.446Z,91.50
2019-05-10T19:22:08.803Z,91.80
2019-05-10T19:24:39.323Z,91.90
2019-05-10T19:27:11.299Z,92.10
2019-05-10T19:29:45.928Z,92.20
2019-05-10T19:32:18.347Z,92.50
2019-05-10T19:34:48.264Z,92.70
2019-05-10T19:37:29.758Z,92.90
2019-05-10T19:39:51.737Z,93.10
2019-05-10T19:42:24.046Z,93.20
2019-05-10T19:44:55.909Z,93.40
2019-05-10T19:47:26.741Z,93.60
2019-05-10T19:49:57.251Z,93.70
2019-05-10T19:52:39.612Z,93.80
2019-05-10T19:55:19.595Z,94.00
2019-05-10T19:57:54.942Z,94.10
2019-05-10T20:00:28.502Z,94.20
2019-05-10T20:02:59.016Z,94.40
2019-05-10T20:05:29.971Z,94.50
2019-05-10T20:08:02.936Z,94.60
2019-05-10T20:10:33.816Z,94.80
2019-05-10T20:13:06.921Z,94.90
2019-05-10T20:15:37.464Z,95.10
2019-05-10T20:18:08.781Z,95.10
2019-05-10T20:20:39.442Z,95.20
2019-05-10T20:23:10.313Z,95.40
2019-05-10T20:25:42.040Z,95.50
2019-05-10T20:28:14.219Z,95.70
2019-05-10T20:30:45.273Z,95.80
2019-05-10T20:33:15.915Z,95.90
2019-05-10T20:35:46.575Z,96.10
2019-05-10T20:38:16.840Z,96.20
2019-05-10T20:40:47.609Z,96.30
2019-05-10T20:43:18.148Z,96.30
2019-05-10T20:45:48.784Z,96.40
2019-05-10T20:48:19.676Z,96.50
2019-05-10T20:50:50.159Z,96.50
2019-05-10T20:53:32.927Z,96.60
2019-05-10T20:56:01.160Z,96.50
2019-05-10T20:58:31.332Z,96.50
2019-05-10T21:01:01.460Z,96.50
2019-05-10T21:03:31.577Z,96.40
2019-05-10T21:06:01.712Z,96.40
2019-05-10T21:08:31.578Z,96.50
2019-05-10T21:11:01.399Z,96.60
2019-05-10T21:13:31.232Z,96.70
2019-05-10T21:16:01.080Z,96.80
2019-05-10T21:18:30.924Z,96.90
2019-05-10T21:24:07.705Z,96.90
2019-05-10T21:26:37.862Z,97.00
2019-05-10T21:29:08.010Z,97.10
2019-05-10T21:31:37.893Z,96.90
2019-05-10T21:34:10.129Z,97.00
2019-05-10T21:36:39.248Z,97.00
2019-05-10T21:39:09.253Z,97.00
2019-05-10T21:41:39.246Z,97.10
2019-05-10T21:44:09.219Z,97.20
2019-05-10T21:46:39.030Z,97.50
2019-05-10T21:49:09.088Z,97.50
2019-05-10T21:51:38.962Z,97.40
2019-05-10T21:54:08.795Z,97.50
2019-05-10T21:56:38.653Z,97.50
2019-05-10T21:59:08.408Z,97.60
2019-05-10T22:01:38.634Z,97.60
2019-05-10T22:04:08.399Z,97.70
2019-05-10T22:06:38.203Z,97.60
2019-05-10T22:09:10.309Z,97.60
2019-05-10T22:11:40.123Z,97.60
2019-05-10T22:14:09.920Z,97.70
2019-05-10T22:16:40.126Z,97.80
2019-05-10T22:19:10.025Z,97.90
2019-05-10T22:21:39.793Z,98.00
2019-05-10T22:24:09.696Z,98.00
2019-05-10T22:26:42.035Z,98.20
2019-05-10T22:29:16.648Z,98.30
2019-05-10T22:31:46.203Z,98.30
2019-05-10T22:34:16.317Z,98.30
2019-05-10T22:36:46.052Z,98.30
2019-05-10T22:39:15.811Z,98.20
2019-05-10T22:41:45.515Z,98.20
2019-05-10T22:44:15.338Z,98.00
2019-05-10T22:46:45.047Z,97.80
2019-05-10T22:49:14.806Z,97.80
2019-05-10T22:51:44.532Z,97.70
2019-05-10T22:54:14.348Z,97.70
2019-05-10T22:56:44.119Z,97.70
2019-05-10T22:59:13.915Z,97.80
2019-05-10T23:01:43.742Z,97.70
2019-05-10T23:04:13.467Z,97.70
2019-05-10T23:06:43.305Z,97.80
2019-05-10T23:09:24.166Z,97.90
2019-05-10T23:11:44.483Z,98.20
2019-05-10T23:14:33.399Z,97.90
2019-05-10T23:17:03.186Z,97.90
2019-05-10T23:19:33.016Z,98.00
2019-05-10T23:22:02.907Z,98.10
2019-05-10T23:24:39.877Z,98.00
2019-05-10T23:27:09.630Z,98.10
2019-05-10T23:29:39.532Z,98.10
2019-05-10T23:32:09.429Z,98.10
2019-05-10T23:34:39.222Z,98.20
2019-05-10T23:37:08.978Z,98.30
2019-05-10T23:39:41.127Z,98.40
2019-05-10T23:42:10.243Z,98.30
2019-05-10T23:44:40.011Z,98.30
2019-05-10T23:47:09.832Z,98.40
2019-05-10T23:49:39.653Z,98.40
2019-05-10T23:52:09.375Z,98.40
2019-05-10T23:54:39.192Z,98.50
2019-05-10T23:57:09.463Z,98.50
2019-05-10T23:59:39.205Z,98.50
